Time;durP1;ratioP1;P1;durP2;ratioP2;P2;SDS_P1;SDS_P2;PMS_P1;PMS_P2;Temp;Humidity;BMP_temperature;BMP_pressure;BME280_temperature;BME280_humidity;BME280_pressure;Samples;Min_cycle;Max_cycle;Signal;HPM_P1;HPM_P2
2021/08/28 00:01:05;;;;;;;14.37;3.37;;;;;13.60;101494.00;;;;12915039;22;20170;-76
2021/08/28 00:06:06;;;;;;;9.17;3.57;;;;;13.50;101487.00;;;;12864773;22;20227;-76
2021/08/28 00:11:07;;;;;;;12.53;4.00;;;;;13.50;101495.00;;;;12890341;22;20174;-76
2021/08/28 00:16:08;;;;;;;11.50;4.23;;;;;13.40;101497.00;;;;12890685;22;20197;-76
2021/08/28 00:21:11;;;;;;;13.37;3.90;;;;;13.30;101505.00;;;;12915441;22;20169;-76
2021/08/28 00:26:12;;;;;;;14.07;4.27;;;;;13.30;101508.00;;;;12865987;22;20184;-76
2021/08/28 00:31:13;;;;;;;8.73;4.07;;;;;13.20;101511.00;;;;12889797;22;20645;-76
2021/08/28 00:36:15;;;;;;;14.73;4.73;;;;;13.20;101510.00;;;;12866050;22;20256;-76
2021/08/28 00:41:16;;;;;;;13.30;5.50;;;;;13.20;101522.00;;;;12865227;22;20640;-76
2021/08/28 00:46:17;;;;;;;15.33;5.13;;;;;13.30;101512.00;;;;12890294;22;20514;-76
2021/08/28 00:51:18;;;;;;;15.43;5.30;;;;;13.40;101518.00;;;;12841847;22;20498;-76
2021/08/28 00:56:19;;;;;;;17.90;5.60;;;;;13.50;101502.00;;;;12865455;22;20292;-76
2021/08/28 01:01:23;;;;;;;16.63;5.87;;;;;13.50;101510.00;;;;12891110;22;20169;-77
2021/08/28 01:06:59;;;;;;;16.57;5.87;;;;;13.60;101519.00;;;;12915299;22;20221;-77
2021/08/28 01:12:24;;;;;;;17.83;6.40;;;;;13.70;101514.00;;;;12869372;22;20268;-76
2021/08/28 01:17:34;;;;;;;12.00;6.53;;;;;13.80;101508.00;;;;12866601;22;20206;-77
2021/08/28 01:22:39;;;;;;;14.63;6.57;;;;;13.90;101509.00;;;;12863495;22;20193;-76
2021/08/28 01:28:12;;;;;;;14.73;7.17;;;;;13.90;101508.00;;;;12887864;22;20228;-76
2021/08/28 01:33:15;;;;;;;14.47;7.00;;;;;13.90;101504.00;;;;12867581;22;20185;-76
2021/08/28 01:38:18;;;;;;;13.80;7.47;;;;;13.90;101498.00;;;;12840784;22;20220;-77
2021/08/28 01:43:28;;;;;;;14.17;7.40;;;;;13.90;101510.00;;;;12864960;22;20260;-77
2021/08/28 01:48:32;;;;;;;13.87;7.30;;;;;13.90;101519.00;;;;12892003;22;20170;-76
2021/08/28 01:53:34;;;;;;;15.87;8.33;;;;;13.80;101520.00;;;;12867143;22;20313;-77
2021/08/28 01:58:35;;;;;;;22.60;9.43;;;;;13.70;101513.00;;;;12889659;22;20169;-77
2021/08/28 02:03:55;;;;;;;20.57;9.43;;;;;13.70;101521.00;;;;12893542;22;20165;-77
2021/08/28 02:09:06;;;;;;;19.47;8.87;;;;;13.60;101521.00;;;;12890210;22;20173;-76
2021/08/28 02:14:19;;;;;;;18.00;9.70;;;;;13.50;101527.00;;;;12891657;22;20600;-76
2021/08/28 02:19:30;;;;;;;19.87;10.50;;;;;13.40;101535.00;;;;12888058;22;20544;-76
2021/08/28 02:24:55;;;;;;;23.30;11.50;;;;;13.50;101536.00;;;;12934915;22;20166;-76
2021/08/28 02:30:04;;;;;;;22.70;11.67;;;;;13.50;101538.00;;;;12840846;22;20178;-77
2021/08/28 02:35:18;;;;;;;21.77;11.07;;;;;13.60;101548.00;;;;12866951;22;20211;-77
2021/08/28 02:40:21;;;;;;;25.80;11.93;;;;;13.70;101546.00;;;;12865185;22;20636;-76
2021/08/28 02:45:27;;;;;;;25.17;12.47;;;;;13.70;101542.00;;;;12890066;22;20632;-77
2021/08/28 02:50:38;;;;;;;22.97;11.47;;;;;13.80;101542.00;;;;12865339;22;20173;-77
2021/08/28 02:55:43;;;;;;;22.87;12.83;;;;;13.80;101534.00;;;;12864545;22;20193;-76
2021/08/28 03:00:46;;;;;;;20.30;12.53;;;;;13.90;101536.00;;;;12864887;22;20260;-76
2021/08/28 03:05:49;;;;;;;26.20;12.67;;;;;13.80;101532.00;;;;12888308;22;20197;-76
2021/08/28 03:10:52;;;;;;;25.13;11.93;;;;;13.70;101524.00;;;;12839287;22;20165;-77
2021/08/28 03:15:56;;;;;;;21.80;12.40;;;;;13.60;101528.00;;;;12863821;22;20202;-76
2021/08/28 03:20:58;;;;;;;25.17;11.87;;;;;13.50;101517.00;;;;12888706;22;20200;-77
2021/08/28 03:26:00;;;;;;;23.07;12.30;;;;;13.40;101515.00;;;;12865127;22;20173;-77
2021/08/28 03:31:06;;;;;;;23.27;11.40;;;;;13.30;101513.00;;;;12889454;22;20169;-76
2021/08/28 03:36:09;;;;;;;32.00;12.93;;;;;13.30;101508.00;;;;12909320;22;20200;-77
2021/08/28 03:41:11;;;;;;;26.80;12.97;;;;;13.20;101513.00;;;;12839594;22;20180;-76
2021/08/28 03:46:15;;;;;;;25.77;12.57;;;;;13.10;101509.00;;;;12887934;22;20256;-77
2021/08/28 03:51:17;;;;;;;24.70;13.47;;;;;13.20;101509.00;;;;12865292;22;20178;-76
2021/08/28 03:56:18;;;;;;;24.03;13.27;;;;;13.20;101504.00;;;;12864459;22;20189;-76
2021/08/28 04:01:20;;;;;;;26.13;13.23;;;;;13.20;101514.00;;;;12935793;22;20605;-77
2021/08/28 04:06:22;;;;;;;28.40;14.63;;;;;13.20;101515.00;;;;12867608;22;20170;-77
2021/08/28 04:11:23;;;;;;;23.77;15.10;;;;;13.20;101517.00;;;;12912934;22;20243;-77
2021/08/28 04:16:24;;;;;;;33.90;15.33;;;;;13.20;101522.00;;;;12840918;22;20225;-77
2021/08/28 04:21:30;;;;;;;26.67;15.57;;;;;13.30;101524.00;;;;12893085;22;20672;-77
2021/08/28 04:26:31;;;;;;;36.53;15.77;;;;;13.30;101524.00;;;;12890971;22;20201;-77
2021/08/28 04:31:32;;;;;;;26.17;15.83;;;;;13.30;101505.00;;;;12913587;22;20180;-77
2021/08/28 04:36:33;;;;;;;25.57;15.37;;;;;13.40;101508.00;;;;12892591;22;20276;-76
2021/08/28 04:41:35;;;;;;;23.40;14.60;;;;;13.50;101522.00;;;;12843812;22;20506;-76
2021/08/28 04:46:36;;;;;;;31.50;17.43;;;;;13.60;101521.00;;;;12841991;22;20307;-77
2021/08/28 04:51:40;;;;;;;37.50;18.63;;;;;13.70;101522.00;;;;12939408;22;20189;-77
2021/08/28 04:56:44;;;;;;;26.37;16.63;;;;;13.80;101532.00;;;;12867720;22;20197;-76
2021/08/28 05:01:46;;;;;;;30.70;15.93;;;;;13.90;101531.00;;;;12867306;22;20680;-77
2021/08/28 05:06:48;;;;;;;25.37;14.80;;;;;14.00;101525.00;;;;12939143;22;20626;-77
2021/08/28 05:11:54;;;;;;;30.37;16.53;;;;;14.00;101527.00;;;;12869826;22;20180;-77
2021/08/28 05:16:57;;;;;;;28.97;15.67;;;;;14.00;101519.00;;;;12868130;22;20671;-77
2021/08/28 05:22:19;;;;;;;30.67;14.60;;;;;14.10;101524.00;;;;12870529;22;20228;-77
2021/08/28 05:27:53;;;;;;;35.83;17.50;;;;;14.20;101524.00;;;;12899967;22;20216;-76
2021/08/28 05:32:54;;;;;;;32.10;15.77;;;;;14.40;101532.00;;;;12893155;22;20312;-77
2021/08/28 05:37:55;;;;;;;28.07;15.57;;;;;14.50;101537.00;;;;12893004;23;20252;-77
2021/08/28 05:43:03;;;;;;;30.03;15.63;;;;;14.70;101528.00;;;;12915810;22;20166;-76
2021/08/28 05:48:23;;;;;;;32.87;16.53;;;;;14.80;101535.00;;;;12939729;22;20165;-77
2021/08/28 05:53:25;;;;;;;29.40;15.73;;;;;14.90;101534.00;;;;12913453;22;20173;-77
2021/08/28 05:58:26;;;;;;;24.47;13.13;;;;;15.10;101539.00;;;;12892833;22;20193;-77
2021/08/28 06:03:31;;;;;;;23.53;12.97;;;;;15.20;101546.00;;;;12869165;22;20178;-77
2021/08/28 06:08:39;;;;;;;26.23;13.27;;;;;15.30;101552.00;;;;12869889;22;20165;-76
2021/08/28 06:13:53;;;;;;;22.03;12.07;;;;;15.50;101551.00;;;;12895152;22;20228;-77
2021/08/28 06:19:02;;;;;;;19.70;12.53;;;;;15.80;101561.00;;;;12868742;22;20263;-76
2021/08/28 06:24:06;;;;;;;20.73;10.77;;;;;16.30;101588.00;;;;12937983;22;20632;-77
2021/08/28 06:29:18;;;;;;;21.27;10.43;;;;;16.50;101586.00;;;;12867813;22;20609;-77
2021/08/28 06:34:24;;;;;;;15.20;9.87;;;;;16.60;101592.00;;;;12892984;22;20197;-78
2021/08/28 06:39:25;;;;;;;18.23;8.80;;;;;16.60;101594.00;;;;12870594;22;20171;-77
2021/08/28 06:44:59;;;;;;;17.30;8.77;;;;;16.60;101605.00;;;;12813738;22;20185;-78
2021/08/28 06:50:19;;;;;;;20.45;9.38;;;;;16.70;101592.00;;;;12913745;22;20980;-78
2021/08/28 06:55:38;;;;;;;14.35;7.82;;;;;16.90;101587.00;;;;12914527;22;20220;-78
2021/08/28 07:00:58;;;;;;;14.68;7.78;;;;;17.10;101586.00;;;;12889885;22;20657;-78
2021/08/28 07:06:18;;;;;;;18.83;6.82;;;;;17.30;101574.00;;;;12869577;22;20813;-78
2021/08/28 07:11:19;;;;;;;13.18;6.63;;;;;17.70;101584.00;;;;12865896;22;20544;-78
2021/08/28 07:16:20;;;;;;;12.10;6.03;;;;;18.10;101585.00;;;;12887815;22;20189;-78
2021/08/28 07:21:22;;;;;;;13.65;6.13;;;;;18.30;101601.00;;;;12840395;22;20848;-78
2021/08/28 07:26:24;;;;;;;10.27;6.15;;;;;18.50;101609.00;;;;12915623;22;20613;-78
2021/08/28 07:31:45;;;;;;;15.63;6.22;;;;;18.70;101606.00;;;;12935740;22;20209;-78
2021/08/28 07:36:47;;;;;;;12.38;5.30;;;;;18.70;101599.00;;;;12840707;22;20204;-78
2021/08/28 07:41:49;;;;;;;14.00;5.53;;;;;18.80;101605.00;;;;12867321;23;20182;-78
2021/08/28 07:46:51;;;;;;;12.25;5.60;;;;;18.70;101599.00;;;;12867441;22;20476;-79
2021/08/28 07:51:56;;;;;;;11.80;6.05;;;;;19.10;101598.00;;;;12845607;22;20237;-78
2021/08/28 07:56:59;;;;;;;10.00;4.50;;;;;19.60;101609.00;;;;12866845;22;20560;-78
2021/08/28 08:02:01;;;;;;;8.30;4.03;;;;;19.70;101612.00;;;;12937614;22;20193;-78
2021/08/28 08:07:03;;;;;;;10.63;4.32;;;;;20.40;101600.00;;;;12866974;22;20176;-79
2021/08/28 08:12:23;;;;;;;8.82;4.40;;;;;21.20;101607.00;;;;12895822;22;20173;-78
2021/08/28 08:17:43;;;;;;;9.15;3.22;;;;;21.60;101595.00;;;;12891829;22;20540;-79
2021/08/28 08:23:08;;;;;;;6.95;3.22;;;;;20.50;101593.00;;;;12938422;22;20224;-79
2021/08/28 08:28:36;;;;;;;6.82;3.40;;;;;20.10;101602.00;;;;12890631;22;20209;-79
2021/08/28 08:34:20;;;;;;;6.93;3.78;;;;;21.90;101598.00;;;;12867678;22;20193;-79
2021/08/28 08:39:22;;;;;;;8.48;3.22;;;;;22.30;101591.00;;;;12870441;22;20224;-80
2021/08/28 08:44:25;;;;;;;7.00;3.78;;;;;21.80;101601.00;;;;12840080;22;20169;-81
2021/08/28 08:49:27;;;;;;;8.80;3.15;;;;;21.70;101604.00;;;;12864529;22;20777;-80
2021/08/28 08:54:29;;;;;;;9.07;3.20;;;;;21.30;101605.00;;;;12937663;22;20189;-80
2021/08/28 08:59:32;;;;;;;9.20;3.30;;;;;22.20;101595.00;;;;12890561;22;20260;-79
2021/08/28 09:04:34;;;;;;;6.95;3.22;;;;;22.00;101592.00;;;;12891382;22;20673;-81
2021/08/28 09:09:35;;;;;;;6.45;2.90;;;;;22.00;101590.00;;;;12841897;22;20889;-79
2021/08/28 09:14:36;;;;;;;5.28;2.85;;;;;23.70;101575.00;;;;12890900;22;20473;-79
2021/08/28 09:19:39;;;;;;;8.23;2.92;;;;;25.20;101567.00;;;;12910925;22;20208;-83
2021/08/28 09:24:44;;;;;;;6.32;2.97;;;;;26.00;101571.00;;;;12866243;22;20173;-83
2021/08/28 09:29:46;;;;;;;5.78;2.90;;;;;25.50;101572.00;;;;12841079;22;20746;-83
2021/08/28 09:34:47;;;;;;;7.45;3.20;;;;;26.00;101573.00;;;;12887131;22;20202;-82
2021/08/28 09:39:50;;;;;;;5.20;2.50;;;;;26.20;101568.00;;;;12861588;22;20177;-83
2021/08/28 09:44:52;;;;;;;6.70;2.70;;;;;26.10;101566.00;;;;12914916;22;20208;-82
2021/08/28 09:49:54;;;;;;;6.45;2.97;;;;;25.70;101553.00;;;;12891341;22;20470;-82
2021/08/28 09:54:56;;;;;;;5.95;2.97;;;;;26.60;101561.00;;;;12866109;22;20197;-82
2021/08/28 09:59:58;;;;;;;4.03;2.63;;;;;26.40;101562.00;;;;12838939;22;20653;-83
2021/08/28 10:05:00;;;;;;;4.22;2.65;;;;;26.10;101563.00;;;;12910450;22;20173;-82
2021/08/28 10:10:06;;;;;;;6.63;3.10;;;;;24.90;101573.00;;;;12839842;22;20177;-83
2021/08/28 10:15:08;;;;;;;7.22;3.15;;;;;24.30;101574.00;;;;12889930;22;20758;-82
2021/08/28 10:20:11;;;;;;;6.43;2.20;;;;;24.50;101571.00;;;;12863124;22;20197;-82
2021/08/28 10:25:13;;;;;;;4.38;2.95;;;;;24.80;101575.00;;;;12842590;22;20228;-83
2021/08/28 10:30:17;;;;;;;5.18;2.72;;;;;24.80;101579.00;;;;12892266;22;20240;-83
2021/08/28 10:35:19;;;;;;;6.35;3.03;;;;;24.40;101572.00;;;;12842891;22;20647;-83
2021/08/28 10:40:27;;;;;;;8.07;3.03;;;;;24.30;101577.00;;;;12869273;22;20170;-83
2021/08/28 10:45:33;;;;;;;6.45;3.28;;;;;23.80;101571.00;;;;12864969;22;20241;-82
2021/08/28 10:51:07;;;;;;;3.78;2.63;;;;;23.70;101558.00;;;;12848897;22;20182;-82
2021/08/28 10:56:08;;;;;;;5.88;3.30;;;;;23.90;101559.00;;;;12866340;22;20641;-83
2021/08/28 11:01:09;;;;;;;4.43;2.97;;;;;24.60;101545.00;;;;12865946;22;20252;-82
2021/08/28 11:06:14;;;;;;;4.25;3.10;;;;;24.60;101548.00;;;;12864900;22;20176;-82
2021/08/28 11:11:41;;;;;;;5.68;2.70;;;;;23.90;101556.00;;;;12866116;22;20169;-82
2021/08/28 11:16:42;;;;;;;4.60;3.10;;;;;24.20;101549.00;;;;12863849;22;20231;-82
2021/08/28 11:21:46;;;;;;;4.55;2.88;;;;;24.40;101549.00;;;;12890095;22;20169;-83
2021/08/28 11:26:53;;;;;;;6.07;3.33;;;;;24.80;101544.00;;;;12866592;22;20186;-83
2021/08/28 11:32:14;;;;;;;4.40;3.33;;;;;25.20;101555.00;;;;12893845;22;20494;-83
2021/08/28 11:37:27;;;;;;;4.40;2.97;;;;;24.10;101554.00;;;;12870053;22;20253;-83
2021/08/28 11:42:33;;;;;;;4.22;2.88;;;;;23.30;101554.00;;;;12892769;22;20537;-82
2021/08/28 11:47:35;;;;;;;8.65;3.85;;;;;23.30;101564.00;;;;12867421;23;20181;-82
2021/08/28 11:52:37;;;;;;;5.65;3.40;;;;;23.50;101558.00;;;;12890634;22;20196;-82
2021/08/28 11:57:39;;;;;;;3.55;2.85;;;;;24.70;101538.00;;;;12883382;22;20197;-82
2021/08/28 12:02:40;;;;;;;6.97;3.10;;;;;24.30;101552.00;;;;12841371;22;20177;-83
2021/08/28 12:07:50;;;;;;;4.35;2.90;;;;;24.70;101544.00;;;;12912222;22;20224;-82
2021/08/28 12:12:57;;;;;;;5.22;3.00;;;;;25.90;101538.00;;;;12891924;22;20170;-82
2021/08/28 12:17:59;;;;;;;4.85;2.47;;;;;26.50;101532.00;;;;12911721;22;20233;-81
2021/08/28 12:23:02;;;;;;;6.00;3.42;;;;;25.80;101557.00;;;;12864316;22;20169;-82
2021/08/28 12:28:04;;;;;;;5.18;3.13;;;;;23.90;101558.00;;;;12891530;22;20236;-82
2021/08/28 12:33:11;;;;;;;6.25;3.63;;;;;23.60;101548.00;;;;12867193;22;20173;-82
2021/08/28 12:38:14;;;;;;;7.50;3.85;;;;;24.40;101556.00;;;;12867575;22;20197;-82
2021/08/28 12:43:17;;;;;;;4.90;3.70;;;;;24.80;101561.00;;;;12938806;22;20186;-82
2021/08/28 12:48:18;;;;;;;4.05;3.15;;;;;24.50;101560.00;;;;12870017;22;20184;-83
2021/08/28 12:53:19;;;;;;;6.82;3.38;;;;;24.50;101558.00;;;;12868352;22;20181;-83
2021/08/28 12:58:20;;;;;;;6.22;3.42;;;;;23.90;101563.00;;;;12870029;22;20197;-83
2021/08/28 13:03:26;;;;;;;5.47;3.50;;;;;24.50;101545.00;;;;12893949;22;20169;-82
2021/08/28 13:08:33;;;;;;;3.55;3.15;;;;;25.40;101536.00;;;;12868754;22;20909;-82
2021/08/28 13:13:34;;;;;;;5.22;3.60;;;;;25.60;101539.00;;;;12844986;22;20174;-82
2021/08/28 13:18:35;;;;;;;4.13;3.72;;;;;25.90;101532.00;;;;12868837;22;20239;-83
2021/08/28 13:23:37;;;;;;;6.32;3.85;;;;;24.90;101533.00;;;;12918979;22;20177;-82
2021/08/28 13:28:45;;;;;;;7.60;4.35;;;;;26.20;101536.00;;;;12937959;22;20172;-82
2021/08/28 13:33:58;;;;;;;4.95;3.67;;;;;25.30;101541.00;;;;12868055;22;20651;-82
2021/08/28 13:38:59;;;;;;;7.45;3.70;;;;;24.50;101525.00;;;;12844272;23;20255;-83
2021/08/28 13:44:00;;;;;;;5.75;3.67;;;;;24.20;101520.00;;;;12866301;22;20605;-82
2021/08/28 13:49:02;;;;;;;7.30;3.88;;;;;24.90;101510.00;;;;12843045;22;20173;-83
2021/08/28 13:54:03;;;;;;;7.70;3.63;;;;;25.50;101507.00;;;;12892247;22;20191;-82
2021/08/28 13:59:04;;;;;;;5.93;3.50;;;;;25.80;101510.00;;;;12843328;22;20184;-82
2021/08/28 14:04:05;;;;;;;4.07;2.75;;;;;26.40;101487.00;;;;12867632;22;20509;-82
2021/08/28 14:09:06;;;;;;;4.63;3.20;;;;;26.40;101494.00;;;;12914397;22;20652;-82
2021/08/28 14:14:07;;;;;;;5.47;3.72;;;;;26.60;101503.00;;;;12892728;22;20169;-82
2021/08/28 14:19:08;;;;;;;7.32;3.53;;;;;27.70;101493.00;;;;12939450;22;20185;-83
2021/08/28 14:24:10;;;;;;;4.30;3.03;;;;;26.00;101491.00;;;;12894059;22;20727;-83
2021/08/28 14:29:11;;;;;;;4.40;3.95;;;;;24.00;101503.00;;;;12842268;22;20169;-82
2021/08/28 14:34:12;;;;;;;3.30;3.00;;;;;27.50;101477.00;;;;12866003;22;20188;-82
2021/08/28 14:39:13;;;;;;;5.38;3.22;;;;;31.00;101478.00;;;;12889802;22;20174;-81
2021/08/28 14:44:14;;;;;;;5.35;3.42;;;;;32.30;101479.00;;;;12887551;22;20572;-83
2021/08/28 14:49:16;;;;;;;5.82;3.15;;;;;33.70;101472.00;;;;12888383;22;20174;-83
2021/08/28 14:54:17;;;;;;;3.83;3.00;;;;;34.70;101504.00;;;;12892801;22;20624;-83
2021/08/28 14:59:18;;;;;;;4.05;2.70;;;;;29.20;101510.00;;;;12891178;22;20173;-83
2021/08/28 15:04:20;;;;;;;4.15;2.80;;;;;25.80;101514.00;;;;12867692;22;20207;-84
2021/08/28 15:09:21;;;;;;;5.20;3.08;;;;;24.70;101506.00;;;;12890313;22;20185;-82
2021/08/28 15:14:22;;;;;;;5.40;3.05;;;;;23.50;101516.00;;;;12870207;22;20193;-83
2021/08/28 15:19:23;;;;;;;5.82;2.97;;;;;22.90;101510.00;;;;12844814;22;20208;-83
2021/08/28 15:24:26;;;;;;;3.67;2.50;;;;;23.10;101502.00;;;;12870371;22;20204;-83
2021/08/28 15:29:31;;;;;;;4.32;2.50;;;;;23.50;101502.00;;;;12870356;22;20185;-83
2021/08/28 15:34:32;;;;;;;5.93;2.88;;;;;23.80;101509.00;;;;12846274;22;20197;-83
2021/08/28 15:39:33;;;;;;;2.95;2.00;;;;;23.90;101502.00;;;;12869869;22;20692;-83
2021/08/28 15:44:35;;;;;;;3.00;2.58;;;;;24.30;101515.00;;;;12868964;22;20196;-83
2021/08/28 15:49:37;;;;;;;3.58;2.80;;;;;23.60;101535.00;;;;12845343;22;20232;-84
2021/08/28 15:54:38;;;;;;;7.25;3.00;;;;;22.80;101536.00;;;;12894527;22;20193;-84
2021/08/28 15:59:39;;;;;;;3.30;2.45;;;;;22.60;101537.00;;;;12872550;22;20224;-83
2021/08/28 16:04:41;;;;;;;6.55;2.67;;;;;22.80;101535.00;;;;12897211;22;20180;-83
2021/08/28 16:09:42;;;;;;;3.97;2.70;;;;;22.90;101533.00;;;;12847245;22;20184;-83
2021/08/28 16:14:44;;;;;;;4.95;2.53;;;;;22.60;101539.00;;;;12873715;22;20206;-84
2021/08/28 16:19:46;;;;;;;4.65;3.35;;;;;21.90;101540.00;;;;12897805;22;20197;-84
2021/08/28 16:24:47;;;;;;;7.00;3.15;;;;;21.80;101549.00;;;;12872687;22;20181;-83
2021/08/28 16:29:48;;;;;;;6.80;2.80;;;;;21.60;101540.00;;;;12898926;22;20184;-83
2021/08/28 16:34:50;;;;;;;4.55;2.88;;;;;21.50;101553.00;;;;12870616;22;20628;-82
2021/08/28 16:39:52;;;;;;;5.15;3.13;;;;;21.50;101554.00;;;;12898693;22;20501;-84
2021/08/28 16:44:53;;;;;;;5.55;3.13;;;;;21.50;101548.00;;;;12872494;22;20224;-83
2021/08/28 16:49:55;;;;;;;4.63;3.38;;;;;21.50;101548.00;;;;12849953;22;20269;-83
2021/08/28 16:54:56;;;;;;;7.22;3.38;;;;;21.30;101546.00;;;;12874362;22;20193;-83
2021/08/28 16:59:57;;;;;;;5.75;3.35;;;;;21.10;101541.00;;;;12901445;23;20252;-83
2021/08/28 17:04:59;;;;;;;4.72;3.17;;;;;20.90;101554.00;;;;12899295;22;20173;-83
2021/08/28 17:10:01;;;;;;;6.43;3.47;;;;;20.70;101553.00;;;;12899214;22;20170;-83
2021/08/28 17:15:03;;;;;;;7.35;3.63;;;;;20.60;101559.00;;;;12872295;22;20194;-82
2021/08/28 17:20:04;;;;;;;8.75;3.63;;;;;20.40;101565.00;;;;12898451;22;20249;-83
2021/08/28 17:25:07;;;;;;;6.75;3.15;;;;;20.20;101571.00;;;;12898880;22;20170;-85
2021/08/28 17:30:08;;;;;;;6.18;3.70;;;;;20.00;101569.00;;;;12921640;22;20165;-83
2021/08/28 17:35:09;;;;;;;4.68;3.25;;;;;19.80;101573.00;;;;12873460;22;20186;-82
2021/08/28 17:40:11;;;;;;;9.27;3.38;;;;;19.60;101571.00;;;;12899217;22;20248;-84
2021/08/28 17:45:12;;;;;;;4.88;3.17;;;;;19.50;101590.00;;;;12876156;22;20169;-83
2021/08/28 17:50:13;;;;;;;6.72;3.80;;;;;19.30;101589.00;;;;12874211;22;20200;-84
2021/08/28 17:55:15;;;;;;;5.65;3.10;;;;;19.10;101587.00;;;;12897235;22;20192;-83
2021/08/28 18:00:17;;;;;;;8.77;3.50;;;;;18.90;101602.00;;;;12871225;22;20176;-83
2021/08/28 18:05:18;;;;;;;4.40;2.92;;;;;18.70;101603.00;;;;12849661;22;20592;-83
2021/08/28 18:10:20;;;;;;;4.45;3.00;;;;;18.50;101607.00;;;;12873651;22;20193;-84
2021/08/28 18:15:21;;;;;;;4.50;2.90;;;;;18.40;101607.00;;;;12873366;22;20193;-83
2021/08/28 18:20:22;;;;;;;5.95;3.03;;;;;18.20;101632.00;;;;12848068;22;20803;-83
2021/08/28 18:25:27;;;;;;;5.63;3.03;;;;;18.10;101631.00;;;;12874014;22;20177;-82
2021/08/28 18:30:29;;;;;;;4.30;2.88;;;;;17.90;101641.00;;;;12898595;22;20170;-83
2021/08/28 18:35:31;;;;;;;4.82;2.80;;;;;17.70;101646.00;;;;12873432;22;20711;-82
2021/08/28 18:40:32;;;;;;;6.72;3.15;;;;;17.60;101644.00;;;;12848563;22;20185;-82
2021/08/28 18:45:33;;;;;;;5.22;3.15;;;;;17.40;101646.00;;;;12893756;22;20176;-83
2021/08/28 18:50:34;;;;;;;4.20;3.05;;;;;17.20;101657.00;;;;12897458;22;20199;-82
2021/08/28 18:55:36;;;;;;;3.63;2.67;;;;;17.10;101668.00;;;;12896566;22;20189;-83
2021/08/28 19:00:37;;;;;;;5.22;3.05;;;;;17.10;101669.00;;;;12849133;22;20169;-83
2021/08/28 19:05:38;;;;;;;5.20;3.03;;;;;17.00;101676.00;;;;12897244;22;20543;-82
2021/08/28 19:10:40;;;;;;;8.15;3.28;;;;;16.90;101689.00;;;;12872502;22;20208;-82
2021/08/28 19:15:41;;;;;;;5.07;3.30;;;;;16.80;101696.00;;;;12896070;22;20197;-83
2021/08/28 19:20:42;;;;;;;4.88;2.90;;;;;16.70;101698.00;;;;12869398;22;20184;-83
2021/08/28 19:25:43;;;;;;;4.43;3.23;;;;;16.60;101711.00;;;;12845090;22;20247;-82
2021/08/28 19:30:44;;;;;;;4.90;3.10;;;;;16.50;101710.00;;;;12846606;22;20177;-82
2021/08/28 19:35:45;;;;;;;8.05;3.20;;;;;16.40;101714.00;;;;12872319;22;20203;-82
2021/08/28 19:40:49;;;;;;;6.43;3.07;;;;;16.40;101720.00;;;;12849561;22;20253;-83
2021/08/28 19:45:51;;;;;;;4.67;2.97;;;;;16.30;101716.00;;;;12872824;22;20228;-82
2021/08/28 19:50:52;;;;;;;6.43;3.00;;;;;16.20;101722.00;;;;12871891;22;20178;-83
2021/08/28 19:55:54;;;;;;;7.10;3.50;;;;;16.20;101719.00;;;;12872095;22;20201;-83
2021/08/28 20:00:55;;;;;;;8.43;3.13;;;;;16.20;101721.00;;;;12895842;22;20197;-83
2021/08/28 20:05:57;;;;;;;5.30;2.80;;;;;16.20;101721.00;;;;12967568;22;20166;-82
2021/08/28 20:10:59;;;;;;;5.47;3.13;;;;;16.20;101714.00;;;;12870087;22;20170;-83
2021/08/28 20:16:00;;;;;;;6.20;3.10;;;;;16.10;101707.00;;;;12942206;22;20197;-82
2021/08/28 20:21:02;;;;;;;4.90;2.90;;;;;16.00;101720.00;;;;12871024;22;20178;-82
2021/08/28 20:26:03;;;;;;;6.83;3.03;;;;;15.90;101718.00;;;;12896366;22;20227;-82
2021/08/28 20:31:04;;;;;;;8.07;3.27;;;;;15.80;101723.00;;;;12845747;22;20178;-82
2021/08/28 20:36:06;;;;;;;7.30;3.33;;;;;15.70;101727.00;;;;12871203;22;20197;-82
2021/08/28 20:41:08;;;;;;;7.33;3.07;;;;;15.60;101723.00;;;;12847080;22;20178;-81
2021/08/28 20:46:09;;;;;;;4.33;2.63;;;;;15.50;101725.00;;;;12870598;22;20184;-82
2021/08/28 20:51:10;;;;;;;3.73;2.87;;;;;15.50;101734.00;;;;12871694;22;20177;-82
2021/08/28 20:56:11;;;;;;;4.67;2.50;;;;;15.50;101740.00;;;;12872697;22;20664;-81
2021/08/28 21:01:13;;;;;;;5.00;2.60;;;;;15.60;101740.00;;;;12847568;22;20181;-82
2021/08/28 21:06:15;;;;;;;7.83;2.77;;;;;15.70;101738.00;;;;12874290;22;20224;-82
2021/08/28 21:11:16;;;;;;;3.87;3.17;;;;;15.80;101744.00;;;;12849005;22;20479;-82
2021/08/28 21:16:18;;;;;;;11.00;3.00;;;;;15.80;101743.00;;;;12873221;22;20208;-83
2021/08/28 21:21:19;;;;;;;3.80;2.90;;;;;15.90;101745.00;;;;12873308;22;20201;-82
2021/08/28 21:26:20;;;;;;;4.40;2.83;;;;;15.90;101742.00;;;;12898294;22;20169;-82
2021/08/28 21:31:21;;;;;;;3.63;2.67;;;;;15.90;101736.00;;;;12874489;22;20574;-82
2021/08/28 21:36:23;;;;;;;4.00;2.70;;;;;15.90;101746.00;;;;12872409;22;20205;-82
2021/08/28 21:41:25;;;;;;;5.30;2.67;;;;;15.80;101737.00;;;;12873022;22;20228;-83
2021/08/28 21:46:26;;;;;;;5.50;2.70;;;;;15.70;101750.00;;;;12898110;22;20169;-82
2021/08/28 21:51:27;;;;;;;7.50;2.80;;;;;15.70;101746.00;;;;12849475;22;20184;-82
2021/08/28 21:56:28;;;;;;;2.80;2.47;;;;;15.50;101742.00;;;;12873197;22;20213;-83
2021/08/28 22:01:30;;;;;;;4.87;3.20;;;;;15.40;101750.00;;;;12874056;22;20220;-83
2021/08/28 22:06:32;;;;;;;6.10;3.80;;;;;15.20;101739.00;;;;12873573;22;20178;-83
2021/08/28 22:11:33;;;;;;;5.10;3.07;;;;;15.20;101748.00;;;;12873610;22;20169;-83
2021/08/28 22:16:34;;;;;;;3.93;2.93;;;;;15.20;101740.00;;;;12898068;22;20201;-83
2021/08/28 22:21:36;;;;;;;7.57;3.43;;;;;15.20;101739.00;;;;12898612;22;20199;-82
2021/08/28 22:26:37;;;;;;;5.33;3.47;;;;;15.30;101744.00;;;;12873046;22;20173;-82
2021/08/28 22:31:38;;;;;;;7.47;3.33;;;;;15.40;101735.00;;;;12898866;22;20173;-82
2021/08/28 22:36:40;;;;;;;5.17;2.60;;;;;15.40;101730.00;;;;12872402;22;20224;-82
2021/08/28 22:41:41;;;;;;;9.90;3.60;;;;;15.50;101729.00;;;;12899341;22;20244;-82
2021/08/28 22:46:42;;;;;;;6.17;3.50;;;;;15.50;101720.00;;;;12898868;22;20176;-82
2021/08/28 22:51:43;;;;;;;7.43;3.37;;;;;15.60;101723.00;;;;12874260;23;20845;-83
2021/08/28 22:56:44;;;;;;;5.77;3.30;;;;;15.60;101725.00;;;;12872911;23;20298;-82
2021/08/28 23:01:46;;;;;;;6.67;3.17;;;;;15.60;101715.00;;;;12873184;22;20712;-83
2021/08/28 23:06:47;;;;;;;9.33;3.53;;;;;15.50;101721.00;;;;12849603;22;20174;-83
2021/08/28 23:11:49;;;;;;;5.83;3.20;;;;;15.40;101713.00;;;;12873585;22;20177;-82
2021/08/28 23:16:50;;;;;;;7.10;3.33;;;;;15.30;101723.00;;;;12847092;22;20649;-82
2021/08/28 23:21:52;;;;;;;8.60;3.50;;;;;15.10;101721.00;;;;12848638;22;20251;-82
2021/08/28 23:26:53;;;;;;;7.13;3.53;;;;;15.00;101720.00;;;;12873332;22;20199;-82
2021/08/28 23:31:54;;;;;;;5.60;2.87;;;;;14.90;101719.00;;;;12871626;22;20173;-82
2021/08/28 23:36:55;;;;;;;5.13;2.80;;;;;14.80;101712.00;;;;12872285;22;20227;-82
2021/08/28 23:42:12;;;;;;;10.07;3.23;;;;;14.70;101711.00;;;;12873474;22;20169;-82
2021/08/28 23:47:13;;;;;;;8.47;3.27;;;;;14.70;101705.00;;;;12895224;22;20170;-82
2021/08/28 23:52:15;;;;;;;10.10;4.03;;;;;14.60;101696.00;;;;12942274;22;20169;-82
2021/08/28 23:57:16;;;;;;;6.13;3.23;;;;;14.60;101695.00;;;;12870914;22;20494;-82
